createdAt,value
2022-08-31T00:02:22.839Z,16.40
2022-08-31T00:04:59.147Z,16.40
2022-08-31T00:07:35.666Z,16.40
2022-08-31T00:10:14.837Z,16.40
2022-08-31T00:12:44.886Z,16.30
2022-08-31T00:15:25.386Z,16.30
2022-08-31T00:18:06.691Z,16.40
2022-08-31T00:20:38.742Z,16.30
2022-08-31T00:23:37.365Z,16.30
2022-08-31T00:26:07.418Z,16.20
2022-08-31T00:28:36.516Z,16.20
2022-08-31T00:31:05.049Z,16.20
2022-08-31T00:33:36.899Z,16.10
2022-08-31T00:36:18.530Z,16.10
2022-08-31T00:38:49.719Z,16.10
2022-08-31T00:41:20.797Z,16.10
2022-08-31T00:43:56.798Z,16.10
2022-08-31T00:46:29.223Z,16.10
2022-08-31T00:49:02.192Z,16.10
2022-08-31T00:51:32.259Z,16.10
2022-08-31T00:54:18.271Z,16.20
2022-08-31T00:56:52.571Z,16.10
2022-08-31T00:59:24.549Z,16.00
2022-08-31T01:02:04.725Z,16.00
2022-08-31T01:04:39.969Z,16.00
2022-08-31T01:07:10.591Z,16.00
2022-08-31T01:09:55.597Z,15.90
2022-08-31T01:12:27.320Z,15.90
2022-08-31T01:14:56.321Z,16.00
2022-08-31T01:17:35.652Z,15.90
2022-08-31T01:20:15.552Z,15.90
2022-08-31T01:23:10.798Z,15.90
2022-08-31T01:25:45.745Z,15.80
2022-08-31T01:28:16.559Z,15.80
2022-08-31T01:31:17.396Z,15.80
2022-08-31T01:33:48.854Z,15.90
2022-08-31T01:36:28.480Z,15.80
2022-08-31T01:39:22.787Z,15.80
2022-08-31T01:41:52.778Z,15.80
2022-08-31T01:44:28.211Z,15.70
2022-08-31T01:47:15.076Z,15.70
2022-08-31T01:49:43.427Z,15.70
2022-08-31T01:52:13.682Z,15.70
2022-08-31T01:54:41.929Z,15.60
2022-08-31T01:57:11.889Z,15.70
2022-08-31T01:59:48.641Z,15.60
2022-08-31T02:02:31.019Z,15.60
2022-08-31T02:05:07.177Z,15.60
2022-08-31T02:07:37.984Z,15.50
2022-08-31T02:10:12.135Z,15.60
2022-08-31T02:13:07.058Z,15.50
2022-08-31T02:15:35.433Z,15.40
2022-08-31T02:18:17.851Z,15.40
2022-08-31T02:20:52.494Z,15.40
2022-08-31T02:23:20.847Z,15.40
2022-08-31T02:25:49.316Z,15.40
2022-08-31T02:28:19.194Z,15.40
2022-08-31T02:31:06.168Z,15.40
2022-08-31T02:33:40.362Z,15.30
2022-08-31T02:36:20.629Z,15.40
2022-08-31T02:38:54.052Z,15.40
2022-08-31T02:41:47.753Z,15.30
2022-08-31T02:44:19.481Z,15.20
2022-08-31T02:46:48.834Z,15.30
2022-08-31T02:49:40.896Z,15.20
2022-08-31T02:52:21.474Z,15.20
2022-08-31T02:54:59.769Z,15.10
2022-08-31T02:57:36.137Z,15.10
2022-08-31T03:00:25.411Z,15.10
2022-08-31T03:03:09.713Z,15.10
2022-08-31T03:05:43.925Z,15.10
2022-08-31T03:08:20.310Z,15.10
2022-08-31T03:11:02.908Z,15.00
2022-08-31T03:13:31.227Z,15.00
2022-08-31T03:16:30.619Z,15.00
2022-08-31T03:19:19.407Z,15.00
2022-08-31T03:21:49.016Z,15.00
2022-08-31T03:24:27.306Z,14.90
2022-08-31T03:27:02.784Z,14.90
2022-08-31T03:29:37.931Z,14.90
2022-08-31T03:32:31.054Z,14.80
2022-08-31T03:35:07.648Z,14.90
2022-08-31T03:37:42.927Z,14.80
2022-08-31T03:40:18.259Z,14.80
2022-08-31T03:42:53.785Z,14.80
2022-08-31T03:45:32.161Z,14.80
2022-08-31T03:48:21.651Z,14.80
2022-08-31T03:50:53.173Z,14.80
2022-08-31T03:53:28.355Z,14.80
2022-08-31T03:56:02.035Z,14.70
2022-08-31T03:58:50.854Z,14.70
2022-08-31T04:01:37.511Z,14.70
2022-08-31T04:04:27.699Z,14.70
2022-08-31T04:06:56.151Z,14.70
2022-08-31T04:09:32.011Z,14.60
2022-08-31T04:12:19.883Z,14.60
2022-08-31T04:14:57.514Z,14.60
2022-08-31T04:17:26.890Z,14.50
2022-08-31T04:20:11.119Z,14.50
2022-08-31T04:22:39.698Z,14.50
2022-08-31T04:25:10.454Z,14.40
2022-08-31T04:27:39.868Z,14.40
2022-08-31T04:30:10.346Z,14.40
2022-08-31T04:32:39.007Z,14.40
2022-08-31T04:35:08.815Z,14.40
2022-08-31T04:37:45.949Z,14.40
2022-08-31T04:40:25.527Z,14.50
2022-08-31T04:43:06.086Z,14.40
2022-08-31T04:45:35.205Z,14.30
2022-08-31T04:48:16.443Z,14.40
2022-08-31T04:51:01.545Z,14.30
2022-08-31T04:53:31.533Z,14.20
2022-08-31T04:56:14.675Z,14.20
2022-08-31T04:58:48.965Z,14.20
2022-08-31T05:01:24.828Z,14.20
2022-08-31T05:04:05.281Z,14.20
2022-08-31T05:06:42.938Z,14.20
2022-08-31T05:09:31.448Z,14.20
2022-08-31T05:12:11.788Z,14.20
2022-08-31T05:14:49.580Z,14.10
2022-08-31T05:17:18.561Z,14.10
2022-08-31T05:19:46.602Z,14.10
2022-08-31T05:22:14.603Z,14.20
2022-08-31T05:24:44.967Z,14.20
2022-08-31T05:27:13.254Z,14.20
2022-08-31T05:29:49.718Z,14.20
2022-08-31T05:32:19.007Z,14.10
2022-08-31T05:34:47.180Z,14.10
2022-08-31T05:37:44.919Z,14.20
2022-08-31T05:40:21.686Z,14.10
2022-08-31T05:42:54.241Z,14.10
2022-08-31T05:45:36.711Z,14.20
2022-08-31T05:48:15.200Z,14.20
2022-08-31T05:50:43.892Z,14.20
2022-08-31T05:53:17.022Z,14.20
2022-08-31T05:55:46.920Z,14.20
2022-08-31T05:58:21.156Z,14.20
2022-08-31T06:00:49.074Z,14.30
2022-08-31T06:03:18.253Z,14.40
2022-08-31T06:05:46.369Z,14.50
2022-08-31T06:08:15.432Z,14.40
2022-08-31T06:10:43.993Z,14.40
2022-08-31T06:13:16.218Z,14.40
2022-08-31T06:15:46.318Z,14.50
2022-08-31T06:18:14.302Z,14.60
2022-08-31T06:20:42.292Z,14.70
2022-08-31T06:23:11.137Z,14.80
2022-08-31T06:25:39.231Z,14.90
2022-08-31T06:28:12.055Z,15.10
2022-08-31T06:30:56.979Z,15.10
2022-08-31T06:33:30.438Z,15.40
2022-08-31T06:35:58.749Z,15.50
2022-08-31T06:38:43.745Z,15.50
2022-08-31T06:41:34.360Z,15.40
2022-08-31T06:44:17.450Z,15.50
2022-08-31T06:46:57.766Z,15.70
2022-08-31T06:49:32.216Z,15.70
2022-08-31T06:52:07.936Z,15.70
2022-08-31T06:54:47.132Z,16.00
2022-08-31T06:57:21.268Z,16.00
2022-08-31T06:59:49.470Z,16.10
2022-08-31T07:02:21.695Z,16.30
2022-08-31T07:05:01.434Z,16.40
2022-08-31T07:07:48.832Z,16.20
2022-08-31T07:10:24.292Z,16.40
2022-08-31T07:13:05.757Z,16.80
2022-08-31T07:15:46.941Z,17.10
2022-08-31T07:18:16.901Z,17.00
2022-08-31T07:20:45.317Z,17.30
2022-08-31T07:23:23.657Z,17.20
2022-08-31T07:25:55.656Z,17.40
2022-08-31T07:28:29.830Z,17.60
2022-08-31T07:31:05.809Z,17.20
2022-08-31T07:33:39.483Z,17.00
2022-08-31T07:36:34.283Z,17.00
2022-08-31T07:39:45.087Z,17.20
2022-08-31T07:42:17.616Z,17.30
2022-08-31T07:44:53.766Z,17.40
2022-08-31T07:47:29.241Z,17.90
2022-08-31T07:50:04.046Z,18.10
2022-08-31T07:52:35.843Z,18.30
2022-08-31T07:55:35.259Z,18.30
2022-08-31T07:58:06.847Z,18.50
2022-08-31T08:00:43.555Z,18.50
2022-08-31T08:03:18.993Z,18.80
2022-08-31T08:05:52.102Z,18.80
2022-08-31T08:08:23.061Z,19.00
2022-08-31T08:11:01.561Z,19.10
2022-08-31T08:13:30.125Z,19.10
2022-08-31T08:15:58.167Z,19.20
2022-08-31T08:18:29.311Z,19.30
2022-08-31T08:20:58.746Z,19.40
2022-08-31T08:23:28.666Z,19.80
2022-08-31T08:26:01.659Z,19.60
2022-08-31T08:28:40.572Z,19.80
2022-08-31T08:31:14.639Z,19.80
2022-08-31T08:33:43.132Z,20.00
2022-08-31T08:36:12.979Z,20.30
2022-08-31T08:38:43.895Z,19.90
2022-08-31T08:41:14.911Z,19.90
2022-08-31T08:43:49.974Z,20.30
2022-08-31T08:46:34.799Z,20.60
2022-08-31T08:49:13.136Z,20.70
2022-08-31T08:51:42.715Z,20.70
2022-08-31T08:54:14.849Z,20.70
2022-08-31T08:56:49.290Z,20.70
2022-08-31T08:59:20.270Z,20.80
2022-08-31T09:01:53.140Z,21.20
2022-08-31T09:04:39.792Z,21.10
2022-08-31T09:07:30.925Z,21.50
2022-08-31T09:10:06.042Z,21.30
2022-08-31T09:12:47.001Z,21.00
2022-08-31T09:15:36.734Z,21.50
2022-08-31T09:18:17.297Z,21.50
2022-08-31T09:21:00.181Z,21.60
2022-08-31T09:23:32.328Z,21.80
2022-08-31T09:26:07.561Z,21.70
2022-08-31T09:28:39.005Z,21.80
2022-08-31T09:31:07.155Z,22.10
2022-08-31T09:33:47.337Z,22.00
2022-08-31T09:36:17.728Z,22.10
2022-08-31T09:38:48.141Z,22.20
2022-08-31T09:41:32.598Z,22.30
2022-08-31T09:44:24.326Z,22.10
2022-08-31T09:46:54.547Z,22.30
2022-08-31T09:49:27.169Z,22.30
2022-08-31T09:52:21.229Z,22.60
2022-08-31T09:55:14.887Z,22.90
2022-08-31T09:57:46.026Z,23.10
2022-08-31T10:00:16.936Z,23.10
2022-08-31T10:02:44.980Z,23.20
2022-08-31T10:05:32.929Z,23.40
2022-08-31T10:08:08.139Z,23.90
2022-08-31T10:10:38.814Z,23.60
2022-08-31T10:13:13.202Z,23.20
2022-08-31T10:15:48.427Z,23.60
2022-08-31T10:18:20.420Z,23.80
2022-08-31T10:20:55.937Z,24.40
2022-08-31T10:23:34.863Z,24.20
2022-08-31T10:26:07.368Z,23.70
2022-08-31T10:28:41.547Z,23.80
2022-08-31T10:31:22.361Z,23.90
2022-08-31T10:34:15.374Z,24.10
2022-08-31T10:36:44.515Z,24.30
2022-08-31T10:39:25.733Z,24.60
2022-08-31T10:41:53.985Z,24.30
2022-08-31T10:44:32.640Z,24.50
2022-08-31T10:47:02.843Z,25.00
2022-08-31T10:49:32.249Z,25.40
2022-08-31T10:52:09.317Z,25.20
2022-08-31T10:54:45.588Z,24.50
2022-08-31T10:57:32.144Z,23.70
2022-08-31T11:00:08.764Z,23.60
2022-08-31T11:02:51.028Z,23.50
2022-08-31T11:05:32.655Z,24.00
2022-08-31T11:08:12.290Z,24.50
2022-08-31T11:10:49.130Z,24.40
2022-08-31T11:13:36.143Z,24.30
2022-08-31T11:16:24.414Z,24.40
2022-08-31T11:19:19.683Z,24.60
2022-08-31T11:22:10.109Z,25.20
2022-08-31T11:25:20.804Z,25.30
2022-08-31T11:27:53.321Z,25.30
2022-08-31T11:30:27.801Z,25.80
2022-08-31T11:33:00.233Z,25.20
2022-08-31T11:36:05.619Z,25.40
2022-08-31T11:38:50.144Z,25.20
2022-08-31T11:41:36.302Z,24.90
2022-08-31T11:44:07.725Z,25.30
2022-08-31T11:47:08.074Z,25.30
2022-08-31T11:49:45.582Z,25.60
2022-08-31T11:52:41.075Z,25.60
2022-08-31T11:55:21.455Z,26.20
2022-08-31T11:58:26.035Z,26.20
2022-08-31T12:00:59.273Z,25.70
2022-08-31T12:03:43.102Z,25.80
2022-08-31T12:06:34.081Z,25.80
2022-08-31T12:09:21.443Z,25.60
2022-08-31T12:11:59.345Z,26.00
2022-08-31T12:14:38.194Z,25.40
2022-08-31T12:17:22.871Z,26.10
2022-08-31T12:20:01.769Z,26.20
2022-08-31T12:23:31.193Z,26.40
2022-08-31T12:26:31.171Z,26.60
2022-08-31T12:29:23.739Z,26.90
2022-08-31T12:32:29.954Z,26.40
2022-08-31T12:35:05.326Z,26.30
2022-08-31T12:37:37.583Z,26.40
2022-08-31T12:40:22.686Z,27.10
2022-08-31T12:43:02.788Z,27.00
2022-08-31T12:46:01.190Z,26.40
2022-08-31T12:48:50.606Z,26.90
2022-08-31T12:51:45.481Z,26.20
2022-08-31T12:54:47.561Z,26.90
2022-08-31T12:57:42.941Z,26.90
2022-08-31T13:00:17.941Z,27.30
2022-08-31T13:02:50.944Z,27.20
2022-08-31T13:05:25.112Z,27.00
2022-08-31T13:07:55.994Z,27.30
2022-08-31T13:10:33.642Z,26.60
2022-08-31T13:13:11.395Z,25.60
2022-08-31T13:15:43.768Z,25.70
2022-08-31T13:18:14.085Z,25.60
2022-08-31T13:21:04.029Z,25.00
2022-08-31T13:23:48.930Z,25.30
2022-08-31T13:26:23.950Z,25.40
2022-08-31T13:28:54.354Z,25.70
2022-08-31T13:31:25.471Z,26.40
2022-08-31T13:33:56.875Z,26.60
2022-08-31T13:36:32.776Z,26.80
2022-08-31T13:39:03.831Z,26.30
2022-08-31T13:41:36.708Z,26.40
2022-08-31T13:44:09.040Z,27.40
2022-08-31T13:46:43.793Z,26.90
2022-08-31T13:49:32.401Z,26.80
2022-08-31T13:52:02.585Z,25.90
2022-08-31T13:54:32.666Z,26.50
2022-08-31T13:57:12.050Z,26.80
2022-08-31T13:59:41.332Z,26.50
2022-08-31T14:02:36.745Z,26.20
2022-08-31T14:05:09.973Z,25.60
2022-08-31T14:08:02.163Z,25.40
2022-08-31T14:10:36.130Z,25.20
2022-08-31T14:13:12.125Z,24.80
2022-08-31T14:15:42.553Z,24.80
2022-08-31T14:18:24.327Z,24.90
2022-08-31T14:21:22.726Z,25.20
2022-08-31T14:23:54.871Z,25.80
2022-08-31T14:26:26.315Z,25.60
2022-08-31T14:28:57.083Z,25.80
2022-08-31T14:31:27.643Z,26.20
2022-08-31T14:34:22.070Z,25.90
2022-08-31T14:36:53.808Z,25.90
2022-08-31T14:39:27.843Z,25.60
2022-08-31T14:41:57.846Z,25.60
2022-08-31T14:44:28.910Z,25.50
2022-08-31T14:46:56.834Z,25.20
2022-08-31T14:49:25.086Z,25.40
2022-08-31T14:51:53.294Z,25.00
2022-08-31T14:54:21.295Z,25.10
2022-08-31T14:56:56.277Z,25.20
2022-08-31T14:59:24.270Z,25.00
2022-08-31T15:01:52.268Z,24.60
2022-08-31T15:04:21.935Z,24.60
2022-08-31T15:06:53.952Z,24.70
2022-08-31T15:09:22.441Z,24.90
2022-08-31T15:11:52.193Z,24.80
2022-08-31T15:14:20.774Z,24.90
2022-08-31T15:16:50.803Z,24.60
2022-08-31T15:19:23.180Z,24.60
2022-08-31T15:21:58.630Z,24.50
2022-08-31T15:24:28.062Z,24.60
2022-08-31T15:26:59.946Z,24.50
2022-08-31T15:29:28.982Z,24.60
2022-08-31T15:31:58.999Z,24.60
2022-08-31T15:34:29.522Z,24.60
2022-08-31T15:36:59.555Z,24.70
2022-08-31T15:39:32.385Z,24.60
2022-08-31T15:42:02.906Z,24.20
2022-08-31T15:44:30.855Z,24.30
2022-08-31T15:47:17.206Z,24.30
2022-08-31T15:49:45.374Z,24.30
2022-08-31T15:52:13.568Z,24.10
2022-08-31T15:54:42.126Z,24.10
2022-08-31T15:57:12.140Z,24.20
2022-08-31T15:59:43.457Z,24.20
2022-08-31T16:02:13.542Z,24.20
2022-08-31T16:04:42.817Z,24.10
2022-08-31T16:07:13.678Z,24.00
2022-08-31T16:09:44.485Z,23.90
2022-08-31T16:12:14.302Z,23.80
2022-08-31T16:14:45.056Z,23.80
2022-08-31T16:17:14.441Z,23.90
2022-08-31T16:19:42.951Z,23.90
2022-08-31T16:22:10.922Z,23.90
2022-08-31T16:24:39.711Z,23.90
2022-08-31T16:27:11.443Z,23.80
2022-08-31T16:29:41.970Z,23.70
2022-08-31T16:32:10.361Z,23.60
2022-08-31T16:34:40.570Z,23.60
2022-08-31T16:37:09.363Z,23.60
2022-08-31T16:39:38.399Z,23.60
2022-08-31T16:42:07.824Z,23.60
2022-08-31T16:44:36.944Z,23.50
2022-08-31T16:47:07.506Z,23.50
2022-08-31T16:49:36.731Z,23.40
2022-08-31T16:52:07.147Z,23.40
2022-08-31T16:54:41.195Z,23.30
2022-08-31T16:57:09.321Z,23.30
2022-08-31T16:59:37.510Z,23.40
2022-08-31T17:02:06.925Z,23.40
2022-08-31T17:04:51.657Z,23.40
2022-08-31T17:07:21.572Z,23.30
2022-08-31T17:09:49.880Z,23.20
2022-08-31T17:12:21.546Z,23.10
2022-08-31T17:14:52.556Z,23.00
2022-08-31T17:17:23.938Z,23.00
2022-08-31T17:19:54.078Z,22.90
2022-08-31T17:22:31.702Z,22.90
2022-08-31T17:25:03.728Z,22.80
2022-08-31T17:27:33.397Z,22.70
2022-08-31T17:30:05.371Z,22.70
2022-08-31T17:32:37.315Z,22.70
2022-08-31T17:35:12.749Z,22.60
2022-08-31T17:37:41.996Z,22.60
2022-08-31T17:40:14.001Z,22.50
2022-08-31T17:42:42.071Z,22.40
2022-08-31T17:45:10.928Z,22.30
2022-08-31T17:47:40.255Z,22.30
2022-08-31T17:50:09.051Z,22.30
2022-08-31T17:52:37.225Z,22.20
2022-08-31T17:55:07.368Z,22.10
2022-08-31T17:57:35.386Z,22.10
2022-08-31T18:00:05.248Z,21.90
2022-08-31T18:02:34.964Z,21.80
2022-08-31T18:05:09.476Z,21.80
2022-08-31T18:07:40.679Z,21.70
2022-08-31T18:10:09.421Z,21.70
2022-08-31T18:12:41.126Z,21.60
2022-08-31T18:15:10.767Z,21.60
2022-08-31T18:17:38.803Z,21.60
2022-08-31T18:20:09.577Z,21.40
2022-08-31T18:22:37.577Z,21.30
2022-08-31T18:25:06.467Z,21.30
2022-08-31T18:27:35.583Z,21.10
2022-08-31T18:30:03.652Z,21.10
2022-08-31T18:32:36.856Z,21.10
2022-08-31T18:35:17.699Z,21.00
2022-08-31T18:37:48.242Z,20.80
2022-08-31T18:40:51.328Z,20.80
2022-08-31T18:43:37.891Z,20.70
2022-08-31T18:46:06.129Z,20.70
2022-08-31T18:48:34.567Z,20.60
2022-08-31T18:51:04.160Z,20.60
2022-08-31T18:53:36.325Z,20.50
2022-08-31T18:56:09.529Z,20.40
2022-08-31T18:58:50.162Z,20.20
2022-08-31T19:01:29.452Z,20.20
2022-08-31T19:04:03.101Z,20.10
2022-08-31T19:06:33.593Z,20.00
2022-08-31T19:09:03.774Z,19.90
2022-08-31T19:11:51.438Z,19.90
2022-08-31T19:14:32.259Z,19.90
2022-08-31T19:17:05.513Z,19.70
2022-08-31T19:19:34.095Z,19.70
2022-08-31T19:22:02.558Z,19.60
2022-08-31T19:24:36.180Z,19.50
2022-08-31T19:27:04.649Z,19.40
2022-08-31T19:29:40.261Z,19.40
2022-08-31T19:32:10.970Z,19.40
2022-08-31T19:34:43.309Z,19.40
2022-08-31T19:37:13.747Z,19.30
2022-08-31T19:39:45.777Z,19.10
2022-08-31T19:42:39.684Z,19.10
2022-08-31T19:45:41.110Z,19.10
2022-08-31T19:48:08.104Z,19.00
2022-08-31T19:50:41.630Z,19.00
2022-08-31T19:53:14.097Z,18.90
2022-08-31T19:55:54.313Z,18.90
2022-08-31T19:58:25.779Z,18.80
2022-08-31T20:01:02.258Z,18.90
2022-08-31T20:03:34.391Z,18.80
2022-08-31T20:06:13.633Z,18.70
2022-08-31T20:08:52.062Z,18.60
2022-08-31T20:11:41.690Z,18.60
2022-08-31T20:14:17.048Z,18.40
2022-08-31T20:16:59.610Z,18.40
2022-08-31T20:19:36.216Z,18.40
2022-08-31T20:22:08.209Z,18.40
2022-08-31T20:24:44.915Z,18.30
2022-08-31T20:27:18.392Z,18.30
2022-08-31T20:29:47.097Z,18.30
2022-08-31T20:32:23.340Z,18.30
2022-08-31T20:34:56.033Z,18.30
2022-08-31T20:37:26.345Z,18.10
2022-08-31T20:39:56.938Z,18.10
2022-08-31T20:42:42.556Z,18.00
2022-08-31T20:45:19.029Z,18.10
2022-08-31T20:48:09.173Z,18.10
2022-08-31T20:50:40.159Z,18.00
2022-08-31T20:53:14.440Z,18.00
2022-08-31T20:56:06.093Z,18.00
2022-08-31T20:58:43.266Z,18.00
2022-08-31T21:01:26.035Z,17.90
2022-08-31T21:03:56.710Z,17.90
2022-08-31T21:06:31.162Z,17.90
2022-08-31T21:09:16.650Z,17.80
2022-08-31T21:11:48.687Z,17.80
2022-08-31T21:14:24.250Z,17.80
2022-08-31T21:17:06.288Z,17.70
2022-08-31T21:19:43.615Z,17.70
2022-08-31T21:22:14.052Z,17.70
2022-08-31T21:25:06.492Z,17.70
2022-08-31T21:27:43.106Z,17.70
2022-08-31T21:30:20.945Z,17.70
2022-08-31T21:33:02.424Z,17.70
2022-08-31T21:35:48.035Z,17.70
2022-08-31T21:38:22.370Z,17.70
2022-08-31T21:40:51.226Z,17.60
2022-08-31T21:43:25.696Z,17.60
2022-08-31T21:46:03.262Z,17.50
2022-08-31T21:48:32.799Z,17.40
2022-08-31T21:51:11.719Z,17.40
2022-08-31T21:53:55.661Z,17.30
2022-08-31T21:56:37.859Z,17.30
2022-08-31T21:59:35.275Z,17.30
2022-08-31T22:02:16.155Z,17.40
2022-08-31T22:04:59.267Z,17.30
2022-08-31T22:07:44.539Z,17.30
2022-08-31T22:10:13.924Z,17.30
2022-08-31T22:12:50.334Z,17.40
2022-08-31T22:15:25.732Z,17.30
2022-08-31T22:18:26.313Z,17.30
2022-08-31T22:20:56.604Z,17.30
2022-08-31T22:23:38.903Z,17.30
2022-08-31T22:26:10.622Z,17.30
2022-08-31T22:28:40.134Z,17.30
2022-08-31T22:31:10.881Z,17.30
2022-08-31T22:33:51.530Z,17.20
2022-08-31T22:36:35.686Z,17.20
2022-08-31T22:39:13.049Z,17.10
2022-08-31T22:41:58.473Z,17.00
2022-08-31T22:44:29.419Z,17.00
2022-08-31T22:46:59.279Z,17.00
2022-08-31T22:49:37.942Z,16.90
2022-08-31T22:52:17.373Z,16.90
2022-08-31T22:54:54.203Z,16.90
2022-08-31T22:57:24.446Z,16.90
2022-08-31T23:00:11.889Z,16.80
2022-08-31T23:02:46.662Z,16.80
2022-08-31T23:05:24.522Z,16.80
2022-08-31T23:08:00.581Z,16.80
2022-08-31T23:10:29.805Z,16.70
2022-08-31T23:13:05.737Z,16.60
2022-08-31T23:15:34.397Z,16.60
2022-08-31T23:18:09.770Z,16.60
2022-08-31T23:20:42.027Z,16.60
2022-08-31T23:23:10.668Z,16.50
2022-08-31T23:25:46.837Z,16.50
2022-08-31T23:28:17.826Z,16.50
2022-08-31T23:30:50.309Z,16.40
2022-08-31T23:33:36.022Z,16.40
2022-08-31T23:36:17.996Z,16.40
2022-08-31T23:38:50.130Z,16.30
2022-08-31T23:41:38.956Z,16.40
2022-08-31T23:44:10.556Z,16.40
2022-08-31T23:46:43.410Z,16.30
2022-08-31T23:49:16.219Z,16.30
2022-08-31T23:51:55.007Z,16.20
2022-08-31T23:54:23.407Z,16.20
2022-08-31T23:56:57.929Z,16.20
2022-08-31T23:59:28.216Z,16.20
